createdAt,value
2018-08-20T00:00:05.355Z,23.29
2018-08-20T00:02:38.878Z,23.45
2018-08-20T00:05:09.432Z,23.65
2018-08-20T00:07:39.068Z,23.40
2018-08-20T00:10:10.527Z,23.47
2018-08-20T00:12:40.361Z,23.23
2018-08-20T00:15:11.071Z,23.20
2018-08-20T00:17:40.845Z,23.14
2018-08-20T00:20:11.408Z,23.27
2018-08-20T00:22:41.156Z,23.46
2018-08-20T00:25:19.856Z,23.22
2018-08-20T00:27:49.713Z,23.22
2018-08-20T00:30:20.610Z,23.21
2018-08-20T00:32:50.823Z,23.04
2018-08-20T00:35:21.397Z,22.95
2018-08-20T00:37:52.237Z,23.07
2018-08-20T00:40:22.833Z,23.58
2018-08-20T00:42:52.438Z,23.46
2018-08-20T00:45:22.253Z,23.63
2018-08-20T00:47:51.944Z,23.98
2018-08-20T00:50:21.695Z,24.03
2018-08-20T00:52:51.347Z,23.91
2018-08-20T00:55:21.284Z,23.27
2018-08-20T00:57:51.106Z,23.40
2018-08-20T01:00:20.944Z,23.51
2018-08-20T01:02:50.639Z,23.59
2018-08-20T01:05:20.425Z,23.98
2018-08-20T01:07:50.179Z,23.52
2018-08-20T01:10:20.047Z,23.51
2018-08-20T01:12:49.794Z,23.03
2018-08-20T01:15:19.563Z,22.84
2018-08-20T01:17:49.284Z,22.71
2018-08-20T01:20:19.166Z,22.58
2018-08-20T01:22:48.808Z,23.10
2018-08-20T01:25:18.457Z,22.99
2018-08-20T01:27:51.086Z,22.61
2018-08-20T01:30:20.823Z,22.46
2018-08-20T01:32:50.674Z,22.44
2018-08-20T01:35:25.403Z,22.45
2018-08-20T01:37:55.262Z,22.45
2018-08-20T01:40:25.476Z,22.73
2018-08-20T01:42:56.104Z,22.71
2018-08-20T01:45:25.963Z,23.11
2018-08-20T01:47:55.690Z,23.21
2018-08-20T01:50:25.405Z,23.17
2018-08-20T01:52:55.182Z,22.94
2018-08-20T01:55:25.116Z,23.21
2018-08-20T01:57:54.802Z,23.36
2018-08-20T02:00:24.580Z,23.47
2018-08-20T02:02:56.488Z,23.30
2018-08-20T02:05:26.669Z,23.28
2018-08-20T02:07:56.303Z,22.94
2018-08-20T02:10:26.363Z,22.77
2018-08-20T02:12:56.500Z,22.57
2018-08-20T02:15:26.563Z,22.77
2018-08-20T02:17:56.581Z,22.55
2018-08-20T02:20:26.313Z,22.73
2018-08-20T02:22:55.965Z,22.55
2018-08-20T02:25:25.799Z,22.61
2018-08-20T02:27:55.511Z,22.42
2018-08-20T02:30:25.415Z,22.53
2018-08-20T02:32:55.193Z,22.27
2018-08-20T02:35:24.960Z,22.11
2018-08-20T02:37:54.796Z,22.27
2018-08-20T02:40:24.641Z,22.20
2018-08-20T02:42:54.435Z,22.64
2018-08-20T02:45:24.183Z,22.98
2018-08-20T02:47:53.831Z,23.21
2018-08-20T02:50:23.540Z,23.23
2018-08-20T02:52:53.308Z,21.67
2018-08-20T02:55:23.056Z,23.13
2018-08-20T02:57:53.072Z,22.79
2018-08-20T03:00:22.826Z,22.88
2018-08-20T03:02:52.637Z,22.31
2018-08-20T03:05:22.324Z,22.27
2018-08-20T03:07:52.092Z,22.22
2018-08-20T03:10:21.793Z,22.48
2018-08-20T03:12:51.541Z,22.74
2018-08-20T03:15:21.324Z,22.66
2018-08-20T03:17:51.092Z,22.92
2018-08-20T03:20:20.871Z,23.04
2018-08-20T03:22:50.528Z,23.01
2018-08-20T03:25:20.322Z,22.96
2018-08-20T03:27:50.130Z,22.69
2018-08-20T03:30:19.812Z,22.77
2018-08-20T03:32:49.592Z,22.85
2018-08-20T03:35:19.389Z,22.90
2018-08-20T03:37:49.146Z,22.88
2018-08-20T03:40:18.980Z,22.81
2018-08-20T03:42:48.694Z,22.26
2018-08-20T03:45:18.537Z,22.41
2018-08-20T03:47:48.341Z,22.22
2018-08-20T03:50:18.260Z,21.89
2018-08-20T03:52:47.958Z,21.42
2018-08-20T03:55:17.767Z,21.02
2018-08-20T03:57:47.533Z,20.92
2018-08-20T04:00:18.662Z,20.66
2018-08-20T04:02:48.301Z,20.43
2018-08-20T04:05:18.429Z,20.31
2018-08-20T04:07:48.074Z,20.52
2018-08-20T04:10:17.839Z,20.72
2018-08-20T04:12:47.593Z,20.84
2018-08-20T04:15:17.324Z,21.03
2018-08-20T04:17:46.998Z,20.96
2018-08-20T04:20:16.705Z,21.04
2018-08-20T04:22:46.584Z,21.42
2018-08-20T04:25:16.341Z,21.53
2018-08-20T04:27:46.114Z,21.69
2018-08-20T04:30:15.934Z,21.82
2018-08-20T04:32:45.573Z,22.33
2018-08-20T04:35:15.296Z,22.88
2018-08-20T04:37:44.977Z,22.37
2018-08-20T04:40:14.861Z,22.60
2018-08-20T04:42:44.415Z,22.79
2018-08-20T04:45:14.264Z,22.73
2018-08-20T04:47:43.954Z,23.06
2018-08-20T04:50:13.912Z,23.42
2018-08-20T04:52:43.508Z,23.64
2018-08-20T04:55:13.366Z,23.38
2018-08-20T04:57:43.057Z,23.52
2018-08-20T05:00:13.062Z,22.92
2018-08-20T05:02:42.909Z,23.26
2018-08-20T05:05:12.736Z,23.28
2018-08-20T05:07:42.525Z,23.07
2018-08-20T05:10:12.333Z,23.10
2018-08-20T05:12:42.149Z,23.10
2018-08-20T05:15:11.931Z,23.32
2018-08-20T05:17:41.721Z,23.53
2018-08-20T05:20:11.660Z,23.63
2018-08-20T05:22:41.363Z,23.53
2018-08-20T05:25:11.227Z,23.92
2018-08-20T05:27:40.999Z,24.24
2018-08-20T05:30:11.040Z,24.34
2018-08-20T05:32:40.783Z,24.24
2018-08-20T05:35:10.628Z,24.35
2018-08-20T05:37:40.241Z,24.37
2018-08-20T05:40:09.877Z,24.71
2018-08-20T05:42:39.587Z,24.43
2018-08-20T05:45:11.524Z,24.69
2018-08-20T05:47:41.364Z,25.16
2018-08-20T05:50:11.111Z,25.41
2018-08-20T05:52:41.128Z,25.33
2018-08-20T05:55:11.271Z,25.50
2018-08-20T05:57:41.019Z,25.27
2018-08-20T06:00:15.687Z,25.74
2018-08-20T06:02:45.999Z,25.90
2018-08-20T06:05:16.968Z,26.04
2018-08-20T06:07:46.901Z,26.42
2018-08-20T06:10:16.759Z,26.70
2018-08-20T06:12:46.522Z,26.93
2018-08-20T06:15:16.967Z,27.33
2018-08-20T06:17:46.961Z,27.56
2018-08-20T06:20:18.596Z,27.99
2018-08-20T06:22:48.168Z,28.48
2018-08-20T06:25:19.140Z,28.49
2018-08-20T06:27:48.878Z,28.82
2018-08-20T06:30:19.628Z,28.53
2018-08-20T06:32:49.306Z,28.83
2018-08-20T06:35:19.965Z,29.13
2018-08-20T06:37:49.787Z,29.21
2018-08-20T06:40:19.487Z,29.23
2018-08-20T06:42:49.184Z,29.53
2018-08-20T06:45:19.107Z,30.17
2018-08-20T06:47:48.905Z,29.98
2018-08-20T06:50:18.675Z,30.32
2018-08-20T06:52:48.513Z,30.41
2018-08-20T06:55:18.283Z,30.54
2018-08-20T06:58:51.029Z,30.62
2018-08-20T07:01:20.862Z,30.65
2018-08-20T07:03:50.822Z,30.88
2018-08-20T07:06:20.617Z,31.31
2018-08-20T07:08:50.496Z,31.14
2018-08-20T07:11:20.431Z,31.26
2018-08-20T07:13:50.131Z,31.41
2018-08-20T07:16:20.020Z,31.52
2018-08-20T07:18:49.583Z,31.11
2018-08-20T07:21:19.361Z,30.98
2018-08-20T07:23:49.210Z,31.86
2018-08-20T07:26:18.968Z,31.94
2018-08-20T07:28:48.634Z,32.84
2018-08-20T07:31:18.889Z,32.69
2018-08-20T07:33:49.438Z,32.75
2018-08-20T07:36:19.797Z,32.67
2018-08-20T07:38:50.008Z,32.99
2018-08-20T07:41:20.426Z,32.75
2018-08-20T07:43:51.207Z,33.23
2018-08-20T07:46:21.609Z,32.26
2018-08-20T07:48:51.832Z,32.99
2018-08-20T07:51:22.549Z,33.33
2018-08-20T07:53:53.258Z,32.50
2018-08-20T07:56:23.927Z,32.87
2018-08-20T07:58:54.308Z,32.86
2018-08-20T08:01:24.921Z,32.68
2018-08-20T08:03:56.433Z,32.00
2018-08-20T08:06:26.927Z,31.32
2018-08-20T08:08:57.299Z,31.77
2018-08-20T08:11:27.999Z,32.85
2018-08-20T08:13:59.315Z,33.80
2018-08-20T08:16:29.892Z,33.62
2018-08-20T08:19:00.498Z,32.43
2018-08-20T08:21:30.808Z,32.17
2018-08-20T08:24:02.273Z,32.34
2018-08-20T08:26:33.128Z,32.45
2018-08-20T08:29:03.451Z,32.89
2018-08-20T08:32:04.838Z,33.78
2018-08-20T08:34:35.334Z,34.14
2018-08-20T08:37:05.833Z,33.07
2018-08-20T08:39:36.277Z,32.67
2018-08-20T08:42:07.230Z,33.15
2018-08-20T08:44:37.831Z,33.16
2018-08-20T08:47:08.711Z,33.21
2018-08-20T08:49:39.016Z,33.48
2018-08-20T08:52:10.573Z,32.83
2018-08-20T08:54:40.907Z,32.71
2018-08-20T08:57:11.141Z,32.30
2018-08-20T09:00:44.380Z,31.45
2018-08-20T09:03:14.796Z,31.50
2018-08-20T09:05:45.310Z,31.30
2018-08-20T09:08:15.629Z,30.90
2018-08-20T09:10:45.710Z,31.67
2018-08-20T09:13:16.530Z,32.19
2018-08-20T09:15:46.932Z,32.72
2018-08-20T09:18:17.819Z,33.22
2018-08-20T09:20:48.048Z,33.31
2018-08-20T09:23:18.596Z,33.55
2018-08-20T09:25:48.828Z,33.57
2018-08-20T09:28:19.819Z,33.78
2018-08-20T09:30:49.974Z,32.49
2018-08-20T09:33:20.248Z,32.24
2018-08-20T09:35:50.736Z,32.37
2018-08-20T09:38:22.510Z,32.53
2018-08-20T09:40:53.112Z,33.27
2018-08-20T09:43:23.439Z,33.80
2018-08-20T09:45:54.113Z,34.13
2018-08-20T09:48:25.276Z,33.72
2018-08-20T09:50:55.479Z,33.68
2018-08-20T09:53:25.854Z,33.49
2018-08-20T09:55:56.168Z,33.14
2018-08-20T09:58:27.422Z,32.75
2018-08-20T10:00:57.516Z,33.64
2018-08-20T10:03:27.717Z,35.24
2018-08-20T10:05:58.589Z,35.88
2018-08-20T10:08:29.940Z,34.14
2018-08-20T10:10:59.815Z,33.42
2018-08-20T10:13:30.034Z,32.92
2018-08-20T10:16:00.807Z,32.49
2018-08-20T10:18:32.163Z,32.30
2018-08-20T10:21:01.989Z,31.93
2018-08-20T10:23:31.959Z,31.97
2018-08-20T10:26:01.653Z,32.57
2018-08-20T10:28:32.386Z,34.28
2018-08-20T10:31:02.012Z,35.62
2018-08-20T10:33:31.751Z,36.33
2018-08-20T10:36:01.653Z,37.20
2018-08-20T10:38:31.349Z,36.26
2018-08-20T10:41:01.846Z,37.37
2018-08-20T10:49:27.129Z,34.99
2018-08-20T10:52:07.377Z,36.12
2018-08-20T10:54:47.551Z,36.83
2018-08-20T10:57:17.475Z,36.09
2018-08-20T10:59:47.263Z,35.02
2018-08-20T11:02:17.346Z,33.45
2018-08-20T11:04:47.606Z,33.12
2018-08-20T11:07:20.019Z,32.76
2018-08-20T11:09:50.649Z,33.09
2018-08-20T11:12:21.282Z,33.23
2018-08-20T11:14:52.822Z,32.13
2018-08-20T11:17:23.953Z,33.84
2018-08-20T11:19:55.314Z,35.29
2018-08-20T11:22:25.339Z,35.28
2018-08-20T11:24:57.030Z,36.29
2018-08-20T11:27:26.965Z,37.49
2018-08-20T11:29:56.921Z,37.36
2018-08-20T11:32:26.801Z,36.67
2018-08-20T11:34:57.035Z,35.11
2018-08-20T11:37:26.706Z,34.14
2018-08-20T11:39:56.441Z,33.64
2018-08-20T11:42:26.130Z,33.28
2018-08-20T11:44:56.616Z,33.06
2018-08-20T11:47:27.528Z,32.62
2018-08-20T11:49:58.142Z,33.11
2018-08-20T11:52:28.627Z,33.09
2018-08-20T11:55:00.135Z,32.47
2018-08-20T11:57:30.408Z,32.17
2018-08-20T12:00:00.277Z,32.58
2018-08-20T12:02:30.055Z,32.52
2018-08-20T12:05:02.349Z,32.27
2018-08-20T12:07:33.266Z,32.15
2018-08-20T12:10:03.753Z,31.92
2018-08-20T12:12:34.289Z,31.38
2018-08-20T12:15:05.188Z,31.53
2018-08-20T12:17:35.428Z,31.46
2018-08-20T12:20:06.346Z,31.62
2018-08-20T12:22:37.025Z,32.02
2018-08-20T12:25:10.133Z,32.00
2018-08-20T12:27:40.899Z,31.23
2018-08-20T12:30:11.898Z,31.17
2018-08-20T12:32:42.520Z,31.02
2018-08-20T12:35:13.944Z,30.89
2018-08-20T12:37:44.482Z,30.47
2018-08-20T12:40:14.976Z,30.31
2018-08-20T12:42:45.543Z,30.71
2018-08-20T12:45:16.575Z,31.22
2018-08-20T12:47:47.418Z,31.89
2018-08-20T12:50:17.978Z,32.51
2018-08-20T12:52:48.385Z,32.72
2018-08-20T12:55:19.159Z,33.38
2018-08-20T12:57:49.798Z,33.88
2018-08-20T13:00:20.545Z,34.07
2018-08-20T13:02:51.185Z,34.61
2018-08-20T13:05:21.980Z,34.96
2018-08-20T13:07:52.486Z,35.13
2018-08-20T13:10:22.353Z,34.35
2018-08-20T13:12:52.089Z,33.83
2018-08-20T13:15:24.961Z,33.29
2018-08-20T13:17:54.633Z,32.82
2018-08-20T13:20:24.306Z,32.37
2018-08-20T13:22:54.106Z,32.34
2018-08-20T13:25:26.921Z,32.08
2018-08-20T13:27:56.758Z,32.86
2018-08-20T13:30:26.415Z,33.57
2018-08-20T13:33:59.293Z,34.17
2018-08-20T13:36:29.378Z,34.29
2018-08-20T13:38:59.258Z,34.57
2018-08-20T13:41:29.021Z,35.03
2018-08-20T13:43:58.905Z,34.64
2018-08-20T13:46:28.556Z,33.68
2018-08-20T13:48:58.510Z,33.25
2018-08-20T13:51:28.687Z,32.99
2018-08-20T13:53:58.421Z,32.57
2018-08-20T13:56:28.350Z,33.14
2018-08-20T13:58:58.395Z,33.62
2018-08-20T14:01:28.300Z,34.30
2018-08-20T14:04:02.286Z,34.64
2018-08-20T14:06:34.341Z,35.06
2018-08-20T14:09:06.806Z,34.34
2018-08-20T14:11:37.673Z,33.97
2018-08-20T14:14:08.314Z,33.45
2018-08-20T14:16:38.143Z,33.80
2018-08-20T14:19:08.045Z,32.83
2018-08-20T14:21:38.471Z,33.10
2018-08-20T14:24:08.311Z,32.77
2018-08-20T14:26:38.209Z,32.68
2018-08-20T14:29:08.111Z,32.88
2018-08-20T14:31:37.966Z,32.78
2018-08-20T14:34:07.934Z,32.30
2018-08-20T14:36:37.729Z,32.02
2018-08-20T14:39:08.721Z,32.08
2018-08-20T14:41:38.460Z,32.53
2018-08-20T14:44:08.317Z,33.21
2018-08-20T14:46:38.055Z,33.14
2018-08-20T14:49:07.837Z,32.28
2018-08-20T14:51:37.622Z,31.90
2018-08-20T14:54:07.476Z,31.67
2018-08-20T14:56:37.244Z,31.40
2018-08-20T14:59:06.885Z,31.67
2018-08-20T15:01:36.667Z,31.15
2018-08-20T15:04:06.471Z,31.07
2018-08-20T15:06:44.966Z,31.19
2018-08-20T15:09:14.914Z,31.26
2018-08-20T15:11:45.480Z,31.33
2018-08-20T15:14:15.535Z,31.59
2018-08-20T15:16:45.413Z,31.83
2018-08-20T15:19:15.273Z,31.78
2018-08-20T15:21:46.285Z,31.95
2018-08-20T15:24:16.924Z,31.82
2018-08-20T15:26:47.574Z,31.50
2018-08-20T15:29:18.095Z,30.86
2018-08-20T15:31:48.992Z,30.96
2018-08-20T15:34:18.669Z,30.68
2018-08-20T15:36:48.439Z,30.53
2018-08-20T15:42:32.961Z,30.46
2018-08-20T15:45:02.635Z,30.11
2018-08-20T15:47:32.571Z,29.67
2018-08-20T15:50:02.342Z,29.63
2018-08-20T15:52:32.203Z,30.16
2018-08-20T15:55:02.203Z,30.19
2018-08-20T15:57:31.985Z,29.71
2018-08-20T16:00:01.835Z,29.45
2018-08-20T16:02:31.693Z,29.64
2018-08-20T16:05:01.463Z,29.54
2018-08-20T16:07:32.152Z,29.76
2018-08-20T16:10:02.560Z,29.35
2018-08-20T16:12:32.651Z,29.84
2018-08-20T16:15:02.510Z,29.78
2018-08-20T16:17:32.341Z,29.82
2018-08-20T16:20:02.747Z,29.51
2018-08-20T16:22:32.463Z,29.62
2018-08-20T16:25:02.322Z,29.87
2018-08-20T16:27:32.229Z,29.26
2018-08-20T16:30:02.693Z,29.49
2018-08-20T16:32:32.481Z,29.64
2018-08-20T16:35:02.372Z,29.75
2018-08-20T16:37:32.228Z,29.76
2018-08-20T16:40:02.059Z,29.57
2018-08-20T16:42:31.937Z,29.46
2018-08-20T16:45:01.817Z,29.40
2018-08-20T16:47:31.747Z,28.81
2018-08-20T16:50:01.657Z,28.64
2018-08-20T16:52:31.631Z,28.74
2018-08-20T16:55:01.470Z,28.77
2018-08-20T16:57:31.337Z,28.65
2018-08-20T17:00:01.353Z,28.73
2018-08-20T17:02:31.934Z,28.86
2018-08-20T17:05:01.766Z,28.84
2018-08-20T17:07:31.712Z,28.55
2018-08-20T17:10:02.377Z,28.62
2018-08-20T17:12:32.240Z,28.56
2018-08-20T17:15:02.089Z,28.58
2018-08-20T17:17:31.904Z,28.53
2018-08-20T17:20:02.553Z,28.33
2018-08-20T17:22:32.386Z,28.23
2018-08-20T17:25:02.183Z,28.10
2018-08-20T17:27:32.003Z,27.90
2018-08-20T17:30:01.863Z,27.53
2018-08-20T17:32:33.630Z,27.48
2018-08-20T17:35:03.449Z,27.34
2018-08-20T17:37:33.275Z,27.32
2018-08-20T17:40:07.140Z,27.34
2018-08-20T17:42:37.063Z,27.09
2018-08-20T17:45:08.420Z,27.24
2018-08-20T17:47:40.290Z,26.96
2018-08-20T17:50:25.472Z,27.17
2018-08-20T17:52:55.541Z,27.21
2018-08-20T17:55:25.423Z,27.08
2018-08-20T17:57:55.405Z,27.19
2018-08-20T18:00:29.512Z,26.88
2018-08-20T18:02:59.434Z,27.00
2018-08-20T18:06:58.098Z,27.06
2018-08-20T18:09:27.985Z,26.89
2018-08-20T18:11:57.821Z,26.93
2018-08-20T18:14:27.778Z,26.34
2018-08-20T18:16:58.159Z,26.39
2018-08-20T18:19:28.051Z,25.67
2018-08-20T18:21:57.989Z,25.51
2018-08-20T18:24:27.944Z,25.33
2018-08-20T18:26:58.662Z,25.29
2018-08-20T18:29:29.640Z,25.34
2018-08-20T18:32:03.870Z,25.33
2018-08-20T18:34:34.128Z,24.99
2018-08-20T18:37:04.969Z,24.98
2018-08-20T18:39:35.074Z,25.28
2018-08-20T18:42:07.674Z,25.71
2018-08-20T18:44:37.757Z,25.48
2018-08-20T18:47:09.912Z,25.32
2018-08-20T18:49:46.716Z,24.91
2018-08-20T18:52:17.052Z,24.77
2018-08-20T18:54:54.523Z,24.57
2018-08-20T18:57:30.852Z,24.51
2018-08-20T19:00:03.003Z,24.55
2018-08-20T19:02:41.920Z,24.34
2018-08-20T19:05:13.255Z,24.56
2018-08-20T19:07:43.823Z,24.37
2018-08-20T19:10:34.040Z,24.35
2018-08-20T19:13:03.986Z,24.43
2018-08-20T19:15:44.571Z,24.87
2018-08-20T19:18:19.967Z,24.40
2018-08-20T19:20:51.119Z,24.56
2018-08-20T19:23:21.046Z,24.58
2018-08-20T19:25:51.084Z,24.43
2018-08-20T19:28:23.746Z,24.21
2018-08-20T19:30:55.824Z,24.73
2018-08-20T19:33:28.254Z,24.34
2018-08-20T19:35:58.400Z,24.72
2018-08-20T19:38:28.501Z,25.06
2018-08-20T19:41:20.901Z,25.24
2018-08-20T19:43:52.560Z,25.35
2018-08-20T19:46:39.726Z,25.43
2018-08-20T19:49:14.797Z,25.40
2018-08-20T19:51:45.885Z,25.46
2018-08-20T19:54:17.021Z,25.50
2018-08-20T19:56:47.655Z,25.50
2018-08-20T19:59:27.577Z,25.51
2018-08-20T20:01:57.608Z,24.91
2018-08-20T20:04:27.487Z,24.86
2018-08-20T20:06:57.391Z,24.97
2018-08-20T20:09:27.309Z,24.99
2018-08-20T20:11:57.169Z,25.14
2018-08-20T20:14:34.141Z,25.09
2018-08-20T20:17:05.101Z,25.11
2018-08-20T20:19:34.958Z,25.10
2018-08-20T20:22:04.851Z,24.79
2018-08-20T20:24:34.623Z,24.96
2018-08-20T20:27:04.486Z,25.06
2018-08-20T20:29:34.271Z,25.05
2018-08-20T20:32:04.321Z,25.06
2018-08-20T20:34:34.239Z,25.07
2018-08-20T20:37:04.689Z,24.73
2018-08-20T20:39:35.302Z,24.22
2018-08-20T20:42:05.043Z,24.61
2018-08-20T20:44:34.728Z,24.74
2018-08-20T20:47:05.701Z,24.59
2018-08-20T20:49:37.599Z,24.68
2018-08-20T20:52:07.715Z,24.86
2018-08-20T20:54:37.631Z,24.68
2018-08-20T20:57:07.689Z,24.60
2018-08-20T20:59:37.545Z,24.44
2018-08-20T21:02:08.710Z,24.52
2018-08-20T21:04:38.691Z,24.54
2018-08-20T21:07:09.584Z,24.30
2018-08-20T21:09:44.289Z,24.39
2018-08-20T21:12:14.100Z,24.50
2018-08-20T21:14:43.988Z,24.49
2018-08-20T21:17:14.458Z,24.50
2018-08-20T21:19:46.519Z,24.48
2018-08-20T21:22:16.410Z,23.26
2018-08-20T21:24:47.240Z,23.13
2018-08-20T21:27:26.107Z,23.52
2018-08-20T21:30:01.286Z,23.89
2018-08-20T21:32:31.503Z,24.11
2018-08-20T21:35:01.324Z,23.77
2018-08-20T21:37:31.158Z,22.77
2018-08-20T21:40:01.078Z,23.76
2018-08-20T21:42:47.495Z,23.91
2018-08-20T21:45:17.371Z,23.96
2018-08-20T21:47:47.076Z,23.65
2018-08-20T21:50:16.990Z,23.64
2018-08-20T21:52:48.532Z,23.81
2018-08-20T21:55:18.305Z,23.74
2018-08-20T21:58:02.276Z,22.98
2018-08-20T22:00:32.366Z,22.55
2018-08-20T22:03:02.601Z,22.22
2018-08-20T22:05:32.522Z,22.12
2018-08-20T22:08:02.486Z,21.91
2018-08-20T22:10:46.515Z,22.17
2018-08-20T22:13:16.214Z,22.08
2018-08-20T22:15:47.720Z,21.77
2018-08-20T22:18:18.104Z,21.70
2018-08-20T22:20:47.970Z,21.67
2018-08-20T22:23:25.274Z,21.90
2018-08-20T22:25:51.871Z,21.77
2018-08-20T22:28:21.774Z,21.76
2018-08-20T22:30:56.381Z,21.67
2018-08-20T22:33:26.262Z,21.85
2018-08-20T22:35:56.916Z,21.85
2018-08-20T22:38:27.004Z,21.82
2018-08-20T22:40:56.724Z,21.96
2018-08-20T22:43:26.418Z,21.85
2018-08-20T22:45:56.372Z,22.01
2018-08-20T22:48:26.183Z,22.49
2018-08-20T22:51:11.508Z,22.55
2018-08-20T22:53:41.517Z,22.28
2018-08-20T22:56:15.424Z,22.18
2018-08-20T22:58:45.510Z,22.25
2018-08-20T23:01:15.503Z,22.44
2018-08-20T23:03:45.238Z,22.29
2018-08-20T23:06:15.180Z,22.35
2018-08-20T23:08:45.033Z,22.18
2018-08-20T23:11:14.926Z,22.67
2018-08-20T23:13:44.793Z,22.85
2018-08-20T23:16:14.733Z,23.10
2018-08-20T23:18:44.579Z,23.02
2018-08-20T23:21:14.522Z,23.05
2018-08-20T23:23:44.335Z,23.23
2018-08-20T23:26:14.417Z,23.00
2018-08-20T23:28:44.262Z,22.95
2018-08-20T23:31:15.178Z,22.57
2018-08-20T23:33:45.068Z,22.44
2018-08-20T23:36:15.951Z,22.81
2018-08-20T23:38:46.019Z,22.90
2018-08-20T23:41:15.939Z,22.88
2018-08-20T23:43:52.568Z,23.01
2018-08-20T23:46:31.074Z,22.79
2018-08-20T23:49:01.642Z,22.84
2018-08-20T23:51:31.576Z,22.91
2018-08-20T23:54:01.533Z,22.52
2018-08-20T23:56:32.630Z,22.12
2018-08-20T23:59:02.489Z,21.89
